Marche Airport

LIPY · 马尔凯, 意大利

罗盘
风向 的 风向 的 风向 到 风向 130° Ancona Falconara Airport 4/22
风: 3 kt, 1 beaufort


3 kt
改变
0 ft 2.000 4.000 6.000 8.000 10.000
Cloud Cloud
FEW 1.500
Cloud Cloud Cloud Cloud Cloud Cloud
BKN 7.200
METAR LIPY 262120Z AUTO 13003KT 080V190 9999 FEW015/// BKN072/// 13/10 Q1006

METAR Ancona Falconara Airport - LIPY/AOI

Ancona Falconara Airport是,意大利中的中型机场。 该机场位于纬度43,61630和经度13,36230。 该机场有一条跑道: 4/22. 本场的ICAO机场代码为LIPY。 该机场的IATA代码为AOI。 机场在Milano FIR中。

该航空气象观测是针对Ancona Falconara Airport在2024年2月26日 22:20, 当地时间进行的。

机场观察

风向为130°,速度为3 kt。 风向在080°和190°之间变化。

可见度为10 km 或者更多。

有几云在1.500 ft的高度 和 碎云在7.200 ft的高度。 破损或更高的上限为7.200 ft。

温度和风寒是13 °C。 露点为10 °C,相对湿度为82%。 海平面上的气压为1006 hPa (QNH)。

白天

今天,太阳从06:48升起,在17:50降落。 这适用于Ancona Falconara Airport,世界夏令时可能有所不同。 当地时间与世界标准时间之间的时差为+1 小时。 当前,没有夏令时有效。

公司介绍

我们没有关于这个机场的公司信息。

体会

到Vliegles.nl去找飞行课程,跳伞和其他飞行体验。 浏览页面,了解Ancona Falconara Airport附近所有可用的活动。 你也可以使用搜索功能来寻找你所在地附近的特定飞行课程、跳伞或其他飞行体验。

跑道

Id 标题 侧风 逆风 侧风 %
4/22 043°-223° 3 kt 100 %

逆风成分最大的方向会被突出显示,并用于横风计算。 这并不一定意味着这个方向在使用。

乌云

1.500 ft FEW 几云
7.200 ft BKN 碎云

温度 & 天气

温度 13 °C
露点 10 °C
相对湿度 82%
Kp-index 0 (0-9)

白天

日出
06:48 (8:00)
中午
12:19
日落
17:50

小工具

你想在你的网站上有一个关于Ancona Falconara Airport的当前航空天气(METAR)的小部件吗?

显示HTML代码
?>